This is the latest recevied weather packets stored in our database for station/object W5DNT. If no packets are shown the sender has not sent any weather packets the latest 1 day(s).
| Time | Temp. | Humidity | Pressure | Rain* | Wind** | Luminosity | Snow |
|---|---|---|---|---|---|---|---|
| 1778110205 | 16.67° C | 82% | 1013.4 hPa | 0 mm | - | - | - |
| 1778108404 | 16.11° C | 82% | 1012.8 hPa | 0 mm | - | - | - |
| 1778107504 | 16.11° C | 82% | 1012.5 hPa | 0 mm | - | - | - |
| 1778104801 | 16.11° C | 82% | 1012.2 hPa | 0 mm | - | - | - |
| 1778102160 | 15° C | 83% | 1013 hPa | 0 mm | - | - | - |
| 1778099459 | 13.89° C | 83% | 1013.3 hPa | 0 mm | - | - | - |
| 1778096786 | 13.33° C | 83% | 1013.7 hPa | 0 mm | - | - | - |
| 1778094955 | 12.78° C | 82% | 1013.6 hPa | 0 mm | - | - | - |
| 1778088656 | 12.22° C | 82% | 1013.6 hPa | 0 mm | - | - | - |
| 1778087754 | 12.22° C | 82% | 1013.4 hPa | 0 mm | - | - | - |
| 1778085948 | 11.67° C | 82% | 1013.2 hPa | 0 mm | - | - | - |
| 1778085066 | 12.22° C | 82% | 1012.4 hPa | 0 mm | - | - | - |
| 1778083242 | 12.22° C | 81% | 1012.6 hPa | 0 mm | - | - | - |
| 1778080534 | - | - | 1010.8 hPa | 0 mm | - | - | - |
| 1778078726 | - | - | 1012.6 hPa | 0 mm | - | - | - |
| 1778068838 | 15° C | 78% | 1010.2 hPa | 0 mm | - | - | - |
| 1778063425 | 16.11° C | 77% | 1009.2 hPa | 0 mm | - | - | - |
| 1778062527 | 16.11° C | 77% | 1009 hPa | 0 mm | - | - | - |
| 1778061621 | 16.11° C | 77% | 1008.8 hPa | 0 mm | - | - | - |
| 1778060720 | 16.11° C | 76% | 1008.6 hPa | 0 mm | - | - | - |
| 1778058013 | 17.22° C | 76% | 1008.3 hPa | 0 mm | - | - | - |
| 1778055305 | 18.33° C | 75% | 1008.1 hPa | 0 mm | - | - | - |
| 1778053508 | 18.33° C | 74% | 1007.8 hPa | 0 mm | - | - | - |
| 1778052603 | 18.33° C | 74% | 1007.8 hPa | 0 mm | - | - | - |
| 1778050870 | 18.33° C | 74% | 1007.9 hPa | 0 mm | - | - | - |
* Rain latest hour (hover to see other rain measurements)
** Current wind speed in m/s (hover to see current wind gust speed)